Time;durP1;ratioP1;P1;durP2;ratioP2;P2;SDS_P1;SDS_P2;PMS_P1;PMS_P2;Temp;Humidity;BMP_temperature;BMP_pressure;BME280_temperature;BME280_humidity;BME280_pressure;Samples;Min_cycle;Max_cycle;Signal;HPM_P1;HPM_P2
2021/10/05 00:00:09;;;;;;;3.87;3.37;;;15.80;99.90;;;;;;5015257;23;20504;-45
2021/10/05 00:02:36;;;;;;;3.90;3.50;;;15.80;99.90;;;;;;5004901;28;21007;-44
2021/10/05 00:05:03;;;;;;;7.37;4.10;;;15.80;99.90;;;;;;5015106;23;20485;-50
2021/10/05 00:07:30;;;;;;;4.30;3.50;;;15.80;99.90;;;;;;5003906;28;20446;-44
2021/10/05 00:09:57;;;;;;;9.43;4.10;;;15.80;99.90;;;;;;5033106;23;20566;-46
2021/10/05 00:12:23;;;;;;;9.60;3.47;;;15.80;99.90;;;;;;5033381;28;20804;-54
2021/10/05 00:14:50;;;;;;;6.53;3.37;;;15.80;99.90;;;;;;5026051;23;20507;-46
2021/10/05 00:17:18;;;;;;;6.07;3.90;;;15.70;99.90;;;;;;5004200;28;20934;-46
2021/10/05 00:19:45;;;;;;;4.87;3.50;;;15.70;99.90;;;;;;5024991;23;20972;-45
2021/10/05 00:22:12;;;;;;;10.83;4.97;;;15.70;99.90;;;;;;5029123;28;20474;-47
2021/10/05 00:24:38;;;;;;;6.00;3.40;;;15.70;99.90;;;;;;5029298;23;20489;-45
2021/10/05 00:27:05;;;;;;;5.10;3.80;;;15.70;99.90;;;;;;5010205;28;20449;-46
2021/10/05 00:29:32;;;;;;;7.27;3.40;;;15.70;99.90;;;;;;5017748;23;20588;-43
2021/10/05 00:31:58;;;;;;;5.87;4.53;;;15.70;99.90;;;;;;5018281;28;20468;-43
2021/10/05 00:34:26;;;;;;;6.70;4.10;;;15.70;99.90;;;;;;5023088;23;20464;-46
2021/10/05 00:36:53;;;;;;;5.67;2.90;;;15.70;99.90;;;;;;5014651;23;20496;-47
2021/10/05 00:39:21;;;;;;;5.00;4.07;;;15.70;99.90;;;;;;5009131;28;20889;-43
2021/10/05 00:41:48;;;;;;;7.60;3.50;;;15.70;99.90;;;;;;5015281;23;20836;-49
2021/10/05 00:44:15;;;;;;;10.23;3.93;;;15.70;99.90;;;;;;5005423;28;20485;-45
2021/10/05 00:46:41;;;;;;;4.47;3.47;;;15.70;99.90;;;;;;5038786;22;20789;-41
2021/10/05 00:49:08;;;;;;;5.90;3.43;;;15.70;99.90;;;;;;5053523;28;20474;-46
2021/10/05 00:51:36;;;;;;;6.20;3.67;;;15.70;99.90;;;;;;5053589;28;20734;-49
2021/10/05 00:54:02;;;;;;;4.60;4.03;;;15.70;99.90;;;;;;5057491;28;20957;-49
2021/10/05 00:56:29;;;;;;;7.33;3.50;;;15.70;99.90;;;;;;5057704;28;20501;-45
2021/10/05 00:58:56;;;;;;;4.50;2.97;;;15.70;99.90;;;;;;5057226;28;20974;-45
2021/10/05 01:01:22;;;;;;;5.17;2.83;;;15.70;99.90;;;;;;5057510;28;20900;-46
2021/10/05 01:03:49;;;;;;;5.37;4.20;;;15.70;99.90;;;;;;5057241;28;20866;-49
2021/10/05 01:06:16;;;;;;;6.57;2.63;;;15.70;99.90;;;;;;5057183;28;20492;-46
2021/10/05 01:08:43;;;;;;;4.03;3.00;;;15.70;99.90;;;;;;5057966;28;20459;-48
2021/10/05 01:11:10;;;;;;;4.30;3.37;;;15.70;99.90;;;;;;5056614;28;20764;-47
2021/10/05 01:13:38;;;;;;;3.77;2.80;;;15.70;99.90;;;;;;5051508;28;20502;-44
2021/10/05 01:16:05;;;;;;;4.53;2.70;;;15.70;99.90;;;;;;5057495;28;20550;-46
2021/10/05 01:18:32;;;;;;;3.53;2.77;;;15.70;99.90;;;;;;5056693;28;20830;-45
2021/10/05 01:21:01;;;;;;;5.00;2.87;;;15.70;99.90;;;;;;5056921;28;20449;-44
2021/10/05 01:23:30;;;;;;;7.70;3.30;;;15.70;99.90;;;;;;5056549;28;20478;-44
2021/10/05 01:25:57;;;;;;;4.20;3.10;;;15.70;99.90;;;;;;5057393;28;20451;-45
2021/10/05 01:28:25;;;;;;;4.07;2.73;;;15.70;99.90;;;;;;5058141;28;20989;-47
2021/10/05 01:30:52;;;;;;;4.60;3.07;;;15.70;99.90;;;;;;5063358;28;20428;-40
2021/10/05 01:33:23;;;;;;;6.23;3.00;;;15.70;99.90;;;;;;5080172;28;20435;-39
2021/10/05 01:35:52;;;;;;;5.00;2.30;;;15.70;99.90;;;;;;5068398;28;20446;-38
2021/10/05 01:38:20;;;;;;;3.10;2.60;;;15.80;99.90;;;;;;5063880;28;20497;-37
2021/10/05 01:40:47;;;;;;;6.00;3.33;;;15.70;99.90;;;;;;5063510;28;20432;-41
2021/10/05 01:43:14;;;;;;;3.80;2.10;;;15.70;99.90;;;;;;5062700;28;20516;-45
2021/10/05 01:45:41;;;;;;;3.47;2.23;;;15.70;99.90;;;;;;5061972;28;20463;-46
2021/10/05 01:48:09;;;;;;;3.50;2.23;;;15.70;99.90;;;;;;5056372;28;20497;-48
2021/10/05 01:50:36;;;;;;;4.60;1.97;;;15.70;99.90;;;;;;5067685;28;20439;-46
2021/10/05 01:53:04;;;;;;;4.17;2.23;;;15.70;99.90;;;;;;5068783;28;20440;-38
2021/10/05 01:55:33;;;;;;;9.77;3.37;;;15.70;99.90;;;;;;5069111;28;20463;-41
2021/10/05 01:58:00;;;;;;;3.93;2.60;;;15.60;99.90;;;;;;5066588;28;20997;-47
2021/10/05 02:00:28;;;;;;;11.70;3.00;;;15.60;99.90;;;;;;5064171;28;20436;-48
2021/10/05 02:02:54;;;;;;;4.30;2.50;;;15.60;99.90;;;;;;5063531;28;20509;-42
2021/10/05 02:05:21;;;;;;;5.40;2.30;;;15.60;99.90;;;;;;5055402;28;20481;-45
2021/10/05 02:07:48;;;;;;;5.27;2.33;;;15.50;99.90;;;;;;5056027;28;20477;-45
2021/10/05 02:10:15;;;;;;;3.23;1.97;;;15.60;99.90;;;;;;5056702;28;20443;-48
2021/10/05 02:12:43;;;;;;;3.50;2.10;;;15.60;99.90;;;;;;5057455;28;20463;-43
2021/10/05 02:15:10;;;;;;;6.00;1.97;;;15.50;99.90;;;;;;5055239;28;20478;-44
2021/10/05 02:17:36;;;;;;;6.30;2.27;;;15.60;99.90;;;;;;5053234;28;20493;-45
2021/10/05 02:20:05;;;;;;;3.93;2.17;;;15.60;99.90;;;;;;5055732;28;20513;-46
2021/10/05 02:22:32;;;;;;;5.30;2.47;;;15.60;99.90;;;;;;5056154;28;20447;-42
2021/10/05 02:24:59;;;;;;;5.50;2.13;;;15.50;99.90;;;;;;5048428;28;20548;-44
2021/10/05 02:27:25;;;;;;;5.47;2.33;;;15.50;99.90;;;;;;5048241;28;20443;-44
2021/10/05 02:29:53;;;;;;;7.93;2.10;;;15.50;99.90;;;;;;5055512;28;20983;-44
2021/10/05 02:32:20;;;;;;;6.63;2.27;;;15.50;99.90;;;;;;5056278;28;20761;-45
2021/10/05 02:34:47;;;;;;;6.60;2.40;;;15.50;99.90;;;;;;5056030;28;20481;-44
2021/10/05 02:37:14;;;;;;;3.63;1.90;;;15.50;99.90;;;;;;5055875;28;20456;-47
2021/10/05 02:39:41;;;;;;;2.77;1.77;;;15.50;99.90;;;;;;5056132;28;20513;-48
2021/10/05 02:42:08;;;;;;;3.10;2.50;;;15.50;99.90;;;;;;5056243;28;20474;-48
2021/10/05 02:44:35;;;;;;;4.63;2.13;;;15.50;99.90;;;;;;5055713;28;20532;-49
2021/10/05 02:47:03;;;;;;;4.50;2.13;;;15.40;99.90;;;;;;5055805;28;20458;-55
2021/10/05 02:49:33;;;;;;;2.73;1.90;;;15.40;99.90;;;;;;5057828;28;20452;-43
2021/10/05 02:52:03;;;;;;;3.47;1.77;;;15.40;99.90;;;;;;5056106;28;20447;-43
2021/10/05 02:54:30;;;;;;;2.50;1.30;;;15.40;99.90;;;;;;5055644;28;20497;-46
2021/10/05 02:56:56;;;;;;;3.43;1.97;;;15.40;99.90;;;;;;5055831;28;20501;-43
2021/10/05 02:59:28;;;;;;;3.83;2.50;;;15.30;99.90;;;;;;5055773;28;20521;-44
2021/10/05 03:01:55;;;;;;;4.47;1.80;;;15.30;99.90;;;;;;5055723;28;20482;-40
2021/10/05 03:04:23;;;;;;;7.87;1.83;;;15.30;99.90;;;;;;5055560;28;20537;-42
2021/10/05 03:06:49;;;;;;;3.33;1.93;;;15.30;99.90;;;;;;5055181;28;20471;-44
2021/10/05 03:09:16;;;;;;;1.80;1.60;;;15.30;99.90;;;;;;5055470;28;20454;-43
2021/10/05 03:11:43;;;;;;;4.33;1.97;;;15.40;99.90;;;;;;5056191;28;20788;-53
2021/10/05 03:14:09;;;;;;;3.00;1.57;;;15.30;99.90;;;;;;5056238;28;20427;-47
2021/10/05 03:16:36;;;;;;;2.60;1.10;;;15.30;99.90;;;;;;5054265;28;20460;-46
2021/10/05 03:19:03;;;;;;;4.20;1.63;;;15.30;99.90;;;;;;5055246;28;20471;-46
2021/10/05 03:21:31;;;;;;;2.17;1.70;;;15.30;99.90;;;;;;5055380;28;20443;-43
2021/10/05 03:26:31;;;;;;;2.00;1.27;;;15.30;99.90;;;;;;5020702;22;20485;-44
2021/10/05 03:31:39;;;;;;;1.90;1.40;;;15.30;99.90;;;;;;5022582;23;20480;-43
2021/10/05 03:34:05;;;;;;;3.80;1.67;;;15.30;99.90;;;;;;5020114;28;20453;-43
2021/10/05 03:36:33;;;;;;;3.10;1.97;;;15.30;99.90;;;;;;5021575;23;20977;-45
2021/10/05 03:39:00;;;;;;;3.07;1.70;;;15.30;99.90;;;;;;5003799;28;20438;-42
2021/10/05 03:41:30;;;;;;;2.80;1.60;;;15.30;99.90;;;;;;4987196;23;20547;-44
2021/10/05 03:43:57;;;;;;;1.93;1.33;;;15.30;99.90;;;;;;4976248;28;20529;-47
2021/10/05 03:46:24;;;;;;;1.87;1.13;;;15.30;99.90;;;;;;5011645;23;20554;-44
2021/10/05 03:48:50;;;;;;;2.13;1.53;;;15.30;99.90;;;;;;5014650;28;20480;-44
2021/10/05 03:51:17;;;;;;;2.73;1.43;;;15.20;99.90;;;;;;5022617;23;20547;-47
2021/10/05 03:53:46;;;;;;;2.33;1.40;;;15.20;99.90;;;;;;5014965;28;20874;-50
2021/10/05 03:56:13;;;;;;;1.73;1.20;;;15.20;99.90;;;;;;5022585;23;20501;-44
2021/10/05 03:58:40;;;;;;;3.37;1.80;;;15.20;99.90;;;;;;5014917;28;20448;-45
2021/10/05 04:01:06;;;;;;;4.63;1.57;;;15.20;99.90;;;;;;5022263;23;20828;-43
2021/10/05 04:03:33;;;;;;;1.87;1.30;;;15.20;99.90;;;;;;5014794;28;20444;-46
2021/10/05 04:06:00;;;;;;;2.63;1.77;;;15.20;99.90;;;;;;5022491;22;20489;-45
2021/10/05 04:08:28;;;;;;;2.50;1.47;;;15.20;99.90;;;;;;5022318;28;20461;-46
2021/10/05 04:10:59;;;;;;;3.60;1.43;;;15.10;99.90;;;;;;5018014;23;21015;-44
2021/10/05 04:13:25;;;;;;;5.70;2.20;;;15.10;99.90;;;;;;5014396;28;20479;-45
2021/10/05 04:15:52;;;;;;;4.40;1.63;;;15.10;99.90;;;;;;5031251;23;20461;-44
2021/10/05 04:18:19;;;;;;;4.13;2.13;;;15.10;99.90;;;;;;5014404;28;20545;-41
2021/10/05 04:20:45;;;;;;;2.20;1.50;;;15.00;99.90;;;;;;5009849;28;20449;-44
2021/10/05 04:23:12;;;;;;;4.33;1.53;;;15.10;99.90;;;;;;5020491;23;20858;-44
2021/10/05 04:25:39;;;;;;;8.10;1.63;;;15.10;99.90;;;;;;5013286;28;20546;-45
2021/10/05 04:28:07;;;;;;;3.30;1.60;;;15.10;99.90;;;;;;5030844;23;20496;-48
2021/10/05 04:30:34;;;;;;;5.33;1.63;;;15.00;99.90;;;;;;5032592;28;20538;-45
2021/10/05 04:33:07;;;;;;;2.53;1.67;;;15.00;99.90;;;;;;5040223;23;20524;-45
2021/10/05 04:35:34;;;;;;;1.97;1.77;;;15.00;99.90;;;;;;5035268;28;20490;-49
2021/10/05 04:38:01;;;;;;;3.03;1.53;;;15.00;99.90;;;;;;5029425;23;20865;-45
2021/10/05 04:40:27;;;;;;;2.60;2.20;;;15.10;99.90;;;;;;5003320;28;20516;-42
2021/10/05 04:42:56;;;;;;;4.43;2.10;;;15.00;99.90;;;;;;5030595;23;20567;-45
2021/10/05 04:45:24;;;;;;;5.23;1.60;;;15.00;99.90;;;;;;5023663;28;20961;-43
2021/10/05 04:47:51;;;;;;;2.80;1.67;;;15.10;99.90;;;;;;5035523;23;20485;-47
2021/10/05 04:50:17;;;;;;;4.53;1.70;;;15.10;99.90;;;;;;5003150;28;20516;-44
2021/10/05 04:52:44;;;;;;;1.87;1.53;;;15.10;99.90;;;;;;5015309;23;20484;-43
2021/10/05 04:55:11;;;;;;;8.43;2.23;;;15.10;99.90;;;;;;5012889;28;20437;-40
2021/10/05 04:57:38;;;;;;;2.60;1.70;;;15.10;99.90;;;;;;5014066;23;20458;-42
2021/10/05 05:00:06;;;;;;;5.03;1.87;;;15.10;99.90;;;;;;5005630;28;20468;-43
2021/10/05 05:05:02;;;;;;;6.40;1.83;;;15.20;99.90;;;;;;5020111;23;20965;-47
2021/10/05 05:07:29;;;;;;;5.00;2.80;;;15.20;99.90;;;;;;5005093;28;20928;-47
2021/10/05 05:09:56;;;;;;;3.60;2.40;;;15.20;99.90;;;;;;5019969;23;20484;-47
2021/10/05 05:12:22;;;;;;;3.17;1.90;;;15.10;99.90;;;;;;5015193;28;20449;-46
2021/10/05 05:14:49;;;;;;;8.33;2.23;;;15.10;99.90;;;;;;5030459;23;20798;-50
2021/10/05 05:17:16;;;;;;;4.40;2.50;;;15.10;99.90;;;;;;5015189;28;20477;-44
2021/10/05 05:19:43;;;;;;;4.20;2.20;;;15.10;99.90;;;;;;5025664;23;20524;-44
2021/10/05 05:22:11;;;;;;;3.17;2.47;;;15.00;99.90;;;;;;5016307;28;20496;-48
2021/10/05 05:24:38;;;;;;;3.70;2.17;;;15.00;99.90;;;;;;5038840;23;20562;-44
2021/10/05 05:27:05;;;;;;;3.57;2.10;;;15.00;99.90;;;;;;5014648;28;20476;-45
2021/10/05 05:29:32;;;;;;;4.93;2.90;;;15.00;99.90;;;;;;5015231;28;20538;-44
2021/10/05 05:31:58;;;;;;;11.33;1.90;;;15.00;99.90;;;;;;5021667;22;20554;-42
2021/10/05 05:34:25;;;;;;;3.80;2.13;;;15.00;99.90;;;;;;5015897;28;20441;-46
2021/10/05 05:36:52;;;;;;;4.63;2.00;;;14.90;99.90;;;;;;5022629;23;20503;-48
2021/10/05 05:39:20;;;;;;;7.33;4.77;;;14.90;99.90;;;;;;5016587;28;20456;-44
2021/10/05 05:41:47;;;;;;;3.27;2.20;;;14.90;99.90;;;;;;5025960;22;20562;-46
2021/10/05 05:44:14;;;;;;;3.90;2.87;;;14.90;99.90;;;;;;5018756;28;20510;-46
2021/10/05 05:46:41;;;;;;;3.73;3.03;;;14.90;99.90;;;;;;5026568;23;20504;-41
2021/10/05 05:49:08;;;;;;;6.43;3.40;;;15.00;99.90;;;;;;5018594;28;20448;-43
2021/10/05 05:51:36;;;;;;;4.87;2.40;;;15.00;99.90;;;;;;5021772;23;20488;-47
2021/10/05 05:54:03;;;;;;;7.13;3.23;;;14.90;99.90;;;;;;5017629;28;20473;-45
2021/10/05 05:56:42;;;;;;;5.57;2.87;;;15.00;99.90;;;;;;5029429;23;20477;-41
2021/10/05 05:59:09;;;;;;;3.73;2.57;;;15.00;99.90;;;;;;5017236;28;20866;-41
2021/10/05 06:01:36;;;;;;;3.87;3.03;;;15.00;99.90;;;;;;5050230;22;20514;-44
2021/10/05 06:04:03;;;;;;;3.40;3.10;;;15.00;99.90;;;;;;5035525;28;20458;-44
2021/10/05 06:06:30;;;;;;;3.50;2.77;;;15.00;99.90;;;;;;5031818;23;20996;-43
2021/10/05 06:08:57;;;;;;;3.77;2.50;;;15.00;99.90;;;;;;5008316;28;20438;-42
2021/10/05 06:13:52;;;;;;;6.53;4.03;;;15.00;99.90;;;;;;4983895;23;20478;-42
2021/10/05 06:16:19;;;;;;;9.80;5.63;;;15.10;99.90;;;;;;4981087;28;20443;-44
2021/10/05 06:18:46;;;;;;;11.30;7.07;;;15.10;99.90;;;;;;5013192;23;20486;-44
2021/10/05 06:21:13;;;;;;;14.57;8.53;;;15.10;99.90;;;;;;5020942;28;20822;-46
2021/10/05 06:23:40;;;;;;;13.10;9.17;;;15.10;99.90;;;;;;5017926;23;20560;-44
2021/10/05 06:26:07;;;;;;;13.73;8.80;;;15.20;99.90;;;;;;5006670;28;20469;-42
2021/10/05 06:28:39;;;;;;;10.33;8.60;;;15.10;99.90;;;;;;5008348;22;20474;-38
2021/10/05 06:31:07;;;;;;;11.77;7.90;;;15.10;99.90;;;;;;4995731;28;20805;-41
2021/10/05 06:33:34;;;;;;;10.07;7.93;;;15.10;99.90;;;;;;5011099;23;20480;-36
2021/10/05 06:36:01;;;;;;;7.30;4.57;;;15.10;99.90;;;;;;5017992;28;20472;-43
2021/10/05 06:38:27;;;;;;;7.90;4.60;;;15.10;99.90;;;;;;5020407;23;20507;-44
2021/10/05 06:40:54;;;;;;;7.50;4.40;;;15.10;99.90;;;;;;5022407;28;20448;-46
2021/10/05 06:43:21;;;;;;;8.60;4.00;;;15.20;99.90;;;;;;5026726;23;20508;-45
2021/10/05 06:45:48;;;;;;;8.17;4.20;;;15.20;99.90;;;;;;5014645;28;20496;-42
2021/10/05 06:48:16;;;;;;;5.13;3.33;;;15.10;99.90;;;;;;5025706;23;20453;-44
2021/10/05 06:50:43;;;;;;;4.40;3.70;;;15.20;99.90;;;;;;5020936;28;20516;-46
2021/10/05 06:53:15;;;;;;;4.97;3.40;;;15.20;99.90;;;;;;5020950;23;20432;-43
2021/10/05 06:55:44;;;;;;;5.43;3.40;;;15.20;99.90;;;;;;4997034;28;20984;-58
2021/10/05 06:58:11;;;;;;;5.47;3.77;;;15.30;99.90;;;;;;4996890;28;20492;-44
2021/10/05 07:00:38;;;;;;;5.83;5.00;;;15.30;99.90;;;;;;5021341;22;20496;-40
2021/10/05 07:03:05;;;;;;;9.77;4.70;;;15.30;99.90;;;;;;5015939;28;20732;-43
2021/10/05 07:05:33;;;;;;;6.83;4.37;;;15.30;99.90;;;;;;5022988;23;20801;-43
2021/10/05 07:07:59;;;;;;;5.00;4.33;;;15.30;99.90;;;;;;5015956;28;20441;-42
2021/10/05 07:10:26;;;;;;;8.50;4.60;;;15.40;99.90;;;;;;5023160;23;20811;-46
2021/10/05 07:12:53;;;;;;;6.47;4.20;;;15.40;99.90;;;;;;5015732;28;20464;-44
2021/10/05 07:15:20;;;;;;;5.13;4.63;;;15.40;99.90;;;;;;5026905;23;20554;-45
2021/10/05 07:17:51;;;;;;;6.13;5.10;;;15.50;99.90;;;;;;5035330;28;20468;-44
2021/10/05 07:20:18;;;;;;;7.47;4.77;;;15.50;99.90;;;;;;5034771;22;20508;-43
2021/10/05 07:22:46;;;;;;;4.80;3.67;;;15.50;99.90;;;;;;5015813;28;20539;-43
2021/10/05 07:25:12;;;;;;;5.83;3.80;;;15.50;99.90;;;;;;5023069;23;20547;-45
2021/10/05 07:27:39;;;;;;;6.13;4.37;;;15.50;99.90;;;;;;5014072;28;20500;-44
2021/10/05 07:30:08;;;;;;;6.63;4.30;;;15.50;99.90;;;;;;5022471;22;21713;-45
2021/10/05 07:32:35;;;;;;;8.20;4.80;;;15.50;99.90;;;;;;5015198;28;20547;-45
2021/10/05 07:35:02;;;;;;;6.70;4.07;;;15.60;99.90;;;;;;5023746;23;20460;-41
2021/10/05 07:37:29;;;;;;;5.07;4.00;;;15.70;99.90;;;;;;5014650;28;20462;-54
2021/10/05 07:42:38;;;;;;;6.83;4.50;;;15.70;99.90;;;;;;5021757;23;20583;-44
2021/10/05 07:45:05;;;;;;;9.53;4.67;;;15.70;99.90;;;;;;5014766;28;20962;-44
2021/10/05 07:47:32;;;;;;;8.27;4.67;;;15.70;99.90;;;;;;5015493;23;20494;-45
2021/10/05 07:49:58;;;;;;;7.73;4.50;;;15.70;99.90;;;;;;4997867;28;20512;-43
2021/10/05 07:52:25;;;;;;;6.13;5.13;;;15.70;99.90;;;;;;5004988;23;20524;-46
2021/10/05 07:54:52;;;;;;;10.50;5.70;;;15.70;99.90;;;;;;4998841;28;20848;-46
2021/10/05 07:57:20;;;;;;;9.80;5.63;;;15.70;99.90;;;;;;5044956;23;20491;-44
2021/10/05 07:59:48;;;;;;;7.90;6.00;;;15.70;99.90;;;;;;5057467;28;20477;-46
2021/10/05 08:02:15;;;;;;;7.27;5.63;;;15.70;99.90;;;;;;5064752;23;20986;-46
2021/10/05 08:04:41;;;;;;;7.60;5.27;;;15.70;99.90;;;;;;5057535;28;20467;-43
2021/10/05 08:07:08;;;;;;;7.43;5.70;;;15.70;99.90;;;;;;5066777;22;20540;-46
2021/10/05 08:09:36;;;;;;;10.43;6.80;;;15.70;99.90;;;;;;5058152;28;20467;-47
2021/10/05 08:12:03;;;;;;;9.07;6.83;;;15.70;99.90;;;;;;5065528;23;21044;-46
2021/10/05 08:14:31;;;;;;;13.80;7.23;;;15.70;99.90;;;;;;5057556;28;20529;-48
2021/10/05 08:16:59;;;;;;;16.20;6.17;;;15.70;99.90;;;;;;5058752;23;20503;-44
2021/10/05 08:19:26;;;;;;;13.77;7.53;;;15.70;99.90;;;;;;5024445;23;20489;-45
2021/10/05 08:21:53;;;;;;;10.93;7.30;;;15.80;99.90;;;;;;5017156;28;20445;-45
2021/10/05 08:24:26;;;;;;;12.13;6.43;;;15.80;99.90;;;;;;5024923;23;20484;-48
2021/10/05 08:26:54;;;;;;;12.73;7.63;;;15.80;99.90;;;;;;5017645;28;20608;-43
2021/10/05 08:29:21;;;;;;;13.33;7.97;;;15.90;99.90;;;;;;5025004;23;20489;-48
2021/10/05 08:31:49;;;;;;;12.83;7.33;;;15.90;99.90;;;;;;5017302;28;20934;-46
2021/10/05 08:34:20;;;;;;;15.07;9.07;;;15.90;99.90;;;;;;5025041;23;21039;-46
2021/10/05 08:36:47;;;;;;;11.53;6.83;;;15.90;99.90;;;;;;5019008;28;20503;-47
2021/10/05 08:39:14;;;;;;;15.03;8.73;;;15.90;99.90;;;;;;5025072;23;20524;-44
2021/10/05 08:41:44;;;;;;;14.20;7.53;;;16.00;99.90;;;;;;5017590;28;20457;-45
2021/10/05 08:44:11;;;;;;;16.97;8.63;;;15.90;99.90;;;;;;5024389;23;20579;-49
2021/10/05 08:46:39;;;;;;;12.97;8.63;;;16.00;99.90;;;;;;5040498;23;20484;-46
2021/10/05 08:49:07;;;;;;;14.27;9.33;;;16.00;99.90;;;;;;5016457;28;20473;-42
2021/10/05 08:51:37;;;;;;;11.70;9.30;;;16.00;99.90;;;;;;5025493;23;20864;-49
2021/10/05 08:54:03;;;;;;;16.40;10.53;;;16.00;99.90;;;;;;5017211;28;20477;-41
2021/10/05 08:56:30;;;;;;;16.60;8.80;;;16.00;99.90;;;;;;5025815;23;20507;-46
2021/10/05 08:58:57;;;;;;;16.27;10.30;;;16.00;99.90;;;;;;5017863;28;20523;-44
2021/10/05 09:01:32;;;;;;;14.17;8.93;;;16.00;99.90;;;;;;5024517;23;20489;-42
2021/10/05 09:03:58;;;;;;;14.30;9.50;;;16.00;99.90;;;;;;5017729;28;20456;-45
2021/10/05 09:06:26;;;;;;;13.43;9.80;;;16.00;99.90;;;;;;5025146;23;20484;-45
2021/10/05 09:08:54;;;;;;;13.93;9.77;;;16.00;99.90;;;;;;5018015;28;20507;-42
2021/10/05 09:11:24;;;;;;;15.77;10.40;;;16.10;99.90;;;;;;5024970;23;20500;-45
2021/10/05 09:13:52;;;;;;;12.70;9.40;;;16.00;99.90;;;;;;5018384;28;20445;-49
2021/10/05 09:16:21;;;;;;;13.17;9.27;;;16.10;99.90;;;;;;5028841;22;20496;-44
2021/10/05 09:18:56;;;;;;;14.63;10.70;;;16.10;99.90;;;;;;5021369;28;20480;-44
2021/10/05 09:21:24;;;;;;;19.87;11.60;;;16.10;99.90;;;;;;5044937;22;20428;-40
2021/10/05 09:23:57;;;;;;;18.77;10.67;;;16.10;99.90;;;;;;5022295;28;20980;-42
2021/10/05 09:26:35;;;;;;;17.53;11.07;;;16.10;99.90;;;;;;5028087;23;20469;-43
2021/10/05 09:29:14;;;;;;;18.77;10.53;;;16.10;99.90;;;;;;5020374;28;20480;-41
2021/10/05 09:31:52;;;;;;;21.10;12.07;;;16.20;99.90;;;;;;5020554;28;20540;-43
2021/10/05 09:34:19;;;;;;;16.77;11.17;;;16.10;99.90;;;;;;5020524;28;20451;-43
2021/10/05 09:36:46;;;;;;;15.70;10.87;;;16.10;99.90;;;;;;5020340;28;20476;-43
2021/10/05 09:39:14;;;;;;;18.97;12.10;;;16.10;99.90;;;;;;5020508;28;20449;-46
2021/10/05 09:41:53;;;;;;;18.30;12.33;;;16.20;99.90;;;;;;5020726;28;20530;-40
2021/10/05 09:44:26;;;;;;;17.53;11.20;;;16.20;99.90;;;;;;5021600;28;20875;-49
2021/10/05 09:46:53;;;;;;;17.47;11.23;;;16.20;99.90;;;;;;5023111;28;20492;-42
2021/10/05 09:49:20;;;;;;;18.47;11.63;;;16.20;99.90;;;;;;5020260;28;20453;-45
2021/10/05 09:51:56;;;;;;;19.07;11.30;;;16.30;99.90;;;;;;5019443;28;20500;-43
2021/10/05 09:54:28;;;;;;;18.53;13.03;;;16.20;99.90;;;;;;5020021;28;20515;-43
2021/10/05 09:56:55;;;;;;;18.80;12.23;;;16.30;99.90;;;;;;5019501;28;20452;-42
2021/10/05 09:59:22;;;;;;;19.60;12.20;;;16.20;99.90;;;;;;5019787;28;20513;-43
2021/10/05 10:01:49;;;;;;;18.63;12.00;;;16.30;99.90;;;;;;5019829;28;20503;-45
2021/10/05 10:04:16;;;;;;;21.73;12.93;;;16.30;99.90;;;;;;5019851;28;20457;-43
2021/10/05 10:06:45;;;;;;;18.03;12.53;;;16.20;99.90;;;;;;5020059;28;20527;-45
2021/10/05 10:09:12;;;;;;;19.60;12.70;;;16.20;99.90;;;;;;5020308;28;20477;-41
2021/10/05 10:11:40;;;;;;;19.00;13.23;;;16.20;99.90;;;;;;5019699;28;20496;-40
2021/10/05 10:14:07;;;;;;;19.50;13.20;;;16.20;99.90;;;;;;5020132;28;20457;-45
2021/10/05 10:16:35;;;;;;;21.80;15.50;;;16.20;99.90;;;;;;5023296;28;20966;-44
2021/10/05 10:19:03;;;;;;;20.50;13.90;;;16.20;99.90;;;;;;5021150;28;20926;-43
2021/10/05 10:21:32;;;;;;;23.30;11.97;;;16.20;99.90;;;;;;5019817;28;20469;-43
2021/10/05 10:24:13;;;;;;;19.77;13.10;;;16.20;99.90;;;;;;5019810;28;20468;-44
2021/10/05 10:26:45;;;;;;;19.70;13.67;;;16.20;99.90;;;;;;5020546;28;21024;-45
2021/10/05 10:29:13;;;;;;;20.57;13.57;;;16.20;99.90;;;;;;5020458;28;20433;-47
2021/10/05 10:31:41;;;;;;;21.27;13.07;;;16.20;99.90;;;;;;5016858;28;20473;-43
2021/10/05 10:34:20;;;;;;;21.30;14.37;;;16.30;99.90;;;;;;5017536;28;20445;-45
2021/10/05 10:36:47;;;;;;;52.27;31.50;;;16.30;99.90;;;;;;5017416;28;20421;-47
2021/10/05 10:39:16;;;;;;;21.60;15.57;;;16.40;99.90;;;;;;5017484;28;20441;-46
2021/10/05 10:41:46;;;;;;;20.30;14.53;;;16.40;99.90;;;;;;5016406;28;20535;-46
2021/10/05 10:44:16;;;;;;;20.63;14.27;;;16.40;99.90;;;;;;5016283;28;20479;-43
2021/10/05 10:46:43;;;;;;;30.07;16.00;;;16.40;99.90;;;;;;5016990;28;20485;-47
2021/10/05 10:49:14;;;;;;;24.27;14.23;;;16.40;99.90;;;;;;5016953;28;20512;-46
2021/10/05 10:51:43;;;;;;;23.83;15.53;;;16.40;99.90;;;;;;5008030;28;20462;-43
2021/10/05 10:54:15;;;;;;;24.07;14.70;;;16.40;99.90;;;;;;5014855;23;20449;-46
2021/10/05 10:56:44;;;;;;;21.80;14.80;;;16.40;99.90;;;;;;5016275;28;20495;-44
2021/10/05 11:01:42;;;;;;;23.93;14.90;;;16.40;99.90;;;;;;5048574;28;20456;-53
2021/10/05 11:04:11;;;;;;;19.30;13.43;;;16.40;99.90;;;;;;5050096;28;20452;-54
2021/10/05 11:06:38;;;;;;;20.90;15.07;;;16.40;99.90;;;;;;5048983;28;20487;-50
2021/10/05 11:09:06;;;;;;;25.33;14.10;;;16.40;99.90;;;;;;5049348;28;20424;-53
2021/10/05 11:11:36;;;;;;;24.03;14.77;;;16.40;99.90;;;;;;5041096;23;20489;-55
2021/10/05 11:14:09;;;;;;;26.63;14.13;;;16.40;99.90;;;;;;5029632;28;20449;-51
2021/10/05 11:16:40;;;;;;;25.90;14.90;;;16.30;99.90;;;;;;5036493;23;20493;-54
2021/10/05 11:19:10;;;;;;;22.00;14.37;;;16.30;99.90;;;;;;5029317;28;20469;-53
2021/10/05 11:21:39;;;;;;;22.33;13.87;;;16.30;99.90;;;;;;5036274;23;20895;-52
2021/10/05 11:24:07;;;;;;;27.37;16.83;;;16.40;99.90;;;;;;5028826;28;20468;-56
2021/10/05 11:26:35;;;;;;;21.33;14.60;;;16.40;99.90;;;;;;5052517;23;20489;-48
2021/10/05 11:29:03;;;;;;;20.77;14.20;;;16.40;99.90;;;;;;5028066;28;20476;-52
2021/10/05 11:31:45;;;;;;;30.30;14.83;;;16.50;99.90;;;;;;5035358;23;20445;-50
2021/10/05 11:34:15;;;;;;;26.20;15.87;;;16.50;99.90;;;;;;5028258;28;20430;-54
2021/10/05 11:36:42;;;;;;;24.83;15.73;;;16.50;99.90;;;;;;5035167;23;20524;-55
2021/10/05 11:39:10;;;;;;;26.10;16.67;;;16.50;99.90;;;;;;5027523;28;20434;-51
2021/10/05 11:44:19;;;;;;;21.23;15.00;;;16.60;99.90;;;;;;5054567;22;20559;-51
2021/10/05 11:49:41;;;;;;;25.67;16.50;;;16.70;99.90;;;;;;5035429;22;20468;-52
2021/10/05 11:54:38;;;;;;;26.50;16.90;;;16.50;99.90;;;;;;5032652;22;20563;-51
2021/10/05 11:57:10;;;;;;;23.70;15.63;;;16.60;99.90;;;;;;5028047;28;20441;-52
2021/10/05 11:59:39;;;;;;;24.20;15.27;;;16.60;99.90;;;;;;5034766;23;20531;-49
2021/10/05 12:02:07;;;;;;;32.43;15.53;;;16.60;99.90;;;;;;5027809;28;20522;-51
2021/10/05 12:04:35;;;;;;;22.07;14.53;;;16.60;99.90;;;;;;5034274;23;20480;-51
2021/10/05 12:07:06;;;;;;;21.90;15.23;;;16.60;99.90;;;;;;5026934;28;20496;-49
2021/10/05 12:09:33;;;;;;;28.63;17.50;;;16.60;99.90;;;;;;5034981;23;20489;-52
2021/10/05 12:12:06;;;;;;;26.80;14.40;;;16.60;99.90;;;;;;5027869;28;20576;-46
2021/10/05 12:14:37;;;;;;;27.80;16.77;;;16.60;99.90;;;;;;5034371;22;20489;-52
2021/10/05 12:17:06;;;;;;;32.77;16.83;;;16.60;99.90;;;;;;5027057;28;20430;-53
2021/10/05 12:19:38;;;;;;;30.53;18.20;;;16.50;99.90;;;;;;5034351;23;20508;-51
2021/10/05 12:22:08;;;;;;;45.17;27.90;;;16.50;99.90;;;;;;5027030;28;20486;-55
2021/10/05 12:24:54;;;;;;;30.13;18.30;;;16.50;99.90;;;;;;5042966;22;20479;-55
2021/10/05 12:27:35;;;;;;;72.73;34.40;;;16.50;99.90;;;;;;5046739;28;20496;-54
2021/10/05 12:30:07;;;;;;;40.03;20.07;;;16.50;99.90;;;;;;5063860;23;20491;-52
2021/10/05 12:32:39;;;;;;;35.20;17.93;;;16.50;99.90;;;;;;5066505;28;20463;-54
2021/10/05 12:35:20;;;;;;;34.93;20.17;;;16.40;99.90;;;;;;5066661;28;20443;-55
2021/10/05 12:37:56;;;;;;;25.77;16.23;;;16.30;99.90;;;;;;5066711;28;20427;-54
2021/10/05 12:40:23;;;;;;;26.73;15.63;;;16.30;99.90;;;;;;5066264;28;20516;-51
2021/10/05 12:42:53;;;;;;;24.20;16.50;;;16.20;99.90;;;;;;5066692;28;20500;-53
2021/10/05 12:45:21;;;;;;;29.73;16.43;;;16.20;99.90;;;;;;5065911;28;20463;-52
2021/10/05 12:47:57;;;;;;;38.60;17.17;;;16.20;99.90;;;;;;5067213;28;20510;-48
2021/10/05 12:50:26;;;;;;;31.63;17.83;;;16.20;99.90;;;;;;5071210;28;20849;-50
2021/10/05 12:52:55;;;;;;;28.00;16.37;;;16.30;99.90;;;;;;5070984;28;20466;-51
2021/10/05 12:55:26;;;;;;;29.07;16.67;;;16.20;99.90;;;;;;5070630;28;20646;-48
2021/10/05 12:57:53;;;;;;;28.60;14.40;;;16.30;99.90;;;;;;5075242;28;20598;-48
2021/10/05 13:00:21;;;;;;;27.60;15.77;;;16.30;99.90;;;;;;5066483;22;20493;-51
2021/10/05 13:02:49;;;;;;;28.30;17.00;;;16.20;99.90;;;;;;5035014;28;20429;-51
2021/10/05 13:05:18;;;;;;;25.57;15.73;;;16.20;99.90;;;;;;5084925;22;20494;-51
2021/10/05 13:07:45;;;;;;;30.37;13.70;;;16.10;99.90;;;;;;5078689;28;20486;-55